sensor_id;sensor_type;location;lat;lon;timestamp;P1;durP1;ratioP1;P2;durP2;ratioP2
11008;SDS011;5557;51.670;7.788;2022-12-11T00:00:22;90.20;;;45.27;;
11008;SDS011;5557;51.670;7.788;2022-12-11T00:02:49;84.37;;;45.40;;
11008;SDS011;5557;51.670;7.788;2022-12-11T00:05:17;95.53;;;46.70;;
11008;SDS011;5557;51.670;7.788;2022-12-11T00:07:44;101.23;;;52.13;;
11008;SDS011;5557;51.670;7.788;2022-12-11T00:10:10;93.17;;;47.83;;
11008;SDS011;5557;51.670;7.788;2022-12-11T00:12:37;94.60;;;49.97;;
11008;SDS011;5557;51.670;7.788;2022-12-11T00:15:05;84.33;;;45.60;;
11008;SDS011;5557;51.670;7.788;2022-12-11T00:17:33;85.47;;;45.77;;
11008;SDS011;5557;51.670;7.788;2022-12-11T00:20:00;88.87;;;45.33;;
11008;SDS011;5557;51.670;7.788;2022-12-11T00:22:28;95.10;;;45.20;;
11008;SDS011;5557;51.670;7.788;2022-12-11T00:24:56;102.90;;;47.97;;
11008;SDS011;5557;51.670;7.788;2022-12-11T00:27:22;86.70;;;45.93;;
11008;SDS011;5557;51.670;7.788;2022-12-11T00:29:49;96.77;;;46.53;;
11008;SDS011;5557;51.670;7.788;2022-12-11T00:32:16;94.00;;;48.00;;
11008;SDS011;5557;51.670;7.788;2022-12-11T00:34:44;103.70;;;49.83;;
11008;SDS011;5557;51.670;7.788;2022-12-11T00:37:11;104.73;;;50.03;;
11008;SDS011;5557;51.670;7.788;2022-12-11T00:39:38;112.53;;;53.33;;
11008;SDS011;5557;51.670;7.788;2022-12-11T00:42:05;119.90;;;53.70;;
11008;SDS011;5557;51.670;7.788;2022-12-11T00:44:33;115.77;;;51.50;;
11008;SDS011;5557;51.670;7.788;2022-12-11T00:47:00;115.20;;;50.80;;
11008;SDS011;5557;51.670;7.788;2022-12-11T00:49:28;108.67;;;49.10;;
11008;SDS011;5557;51.670;7.788;2022-12-11T00:51:55;101.80;;;46.90;;
11008;SDS011;5557;51.670;7.788;2022-12-11T00:54:22;98.27;;;47.87;;
11008;SDS011;5557;51.670;7.788;2022-12-11T00:56:49;99.93;;;50.00;;
11008;SDS011;5557;51.670;7.788;2022-12-11T00:59:16;90.23;;;45.20;;
11008;SDS011;5557;51.670;7.788;2022-12-11T01:01:43;93.43;;;46.47;;
11008;SDS011;5557;51.670;7.788;2022-12-11T01:04:10;94.43;;;45.27;;
11008;SDS011;5557;51.670;7.788;2022-12-11T01:06:37;79.00;;;43.00;;
11008;SDS011;5557;51.670;7.788;2022-12-11T01:09:04;93.70;;;42.50;;
11008;SDS011;5557;51.670;7.788;2022-12-11T01:11:51;84.73;;;43.13;;
11008;SDS011;5557;51.670;7.788;2022-12-11T01:14:18;73.33;;;40.07;;
11008;SDS011;5557;51.670;7.788;2022-12-11T01:16:45;78.67;;;40.43;;
11008;SDS011;5557;51.670;7.788;2022-12-11T01:19:12;72.60;;;40.10;;
11008;SDS011;5557;51.670;7.788;2022-12-11T01:21:39;80.47;;;41.80;;
11008;SDS011;5557;51.670;7.788;2022-12-11T01:24:06;91.37;;;43.73;;
11008;SDS011;5557;51.670;7.788;2022-12-11T01:26:33;86.73;;;43.47;;
11008;SDS011;5557;51.670;7.788;2022-12-11T01:29:00;82.50;;;41.87;;
11008;SDS011;5557;51.670;7.788;2022-12-11T01:31:27;87.23;;;43.50;;
11008;SDS011;5557;51.670;7.788;2022-12-11T01:33:55;72.33;;;37.17;;
11008;SDS011;5557;51.670;7.788;2022-12-11T01:36:25;75.03;;;38.10;;
11008;SDS011;5557;51.670;7.788;2022-12-11T01:38:52;76.80;;;38.80;;
11008;SDS011;5557;51.670;7.788;2022-12-11T01:41:19;81.17;;;40.17;;
11008;SDS011;5557;51.670;7.788;2022-12-11T01:44:00;85.50;;;41.70;;
11008;SDS011;5557;51.670;7.788;2022-12-11T01:46:53;97.67;;;45.13;;
11008;SDS011;5557;51.670;7.788;2022-12-11T01:49:21;87.40;;;40.93;;
11008;SDS011;5557;51.670;7.788;2022-12-11T01:52:07;100.43;;;44.63;;
11008;SDS011;5557;51.670;7.788;2022-12-11T01:54:41;93.93;;;42.70;;
11008;SDS011;5557;51.670;7.788;2022-12-11T01:57:09;93.87;;;43.63;;
11008;SDS011;5557;51.670;7.788;2022-12-11T01:59:38;89.50;;;42.93;;
11008;SDS011;5557;51.670;7.788;2022-12-11T02:02:11;87.33;;;42.23;;
11008;SDS011;5557;51.670;7.788;2022-12-11T02:04:44;90.00;;;44.00;;
11008;SDS011;5557;51.670;7.788;2022-12-11T02:07:12;108.40;;;47.97;;
11008;SDS011;5557;51.670;7.788;2022-12-11T02:09:40;115.13;;;47.70;;
11008;SDS011;5557;51.670;7.788;2022-12-11T02:12:21;116.47;;;48.40;;
11008;SDS011;5557;51.670;7.788;2022-12-11T02:18:10;129.50;;;50.40;;
11008;SDS011;5557;51.670;7.788;2022-12-11T02:23:52;121.13;;;45.60;;
11008;SDS011;5557;51.670;7.788;2022-12-11T02:29:31;114.67;;;47.30;;
11008;SDS011;5557;51.670;7.788;2022-12-11T02:32:13;109.37;;;45.00;;
11008;SDS011;5557;51.670;7.788;2022-12-11T02:35:30;106.80;;;44.00;;
11008;SDS011;5557;51.670;7.788;2022-12-11T02:37:40;103.40;;;44.90;;
11008;SDS011;5557;51.670;7.788;2022-12-11T02:40:10;99.37;;;42.70;;
11008;SDS011;5557;51.670;7.788;2022-12-11T02:42:41;93.07;;;42.07;;
11008;SDS011;5557;51.670;7.788;2022-12-11T02:45:09;105.10;;;44.43;;
11008;SDS011;5557;51.670;7.788;2022-12-11T02:47:38;96.20;;;43.07;;
11008;SDS011;5557;51.670;7.788;2022-12-11T02:50:10;103.50;;;45.10;;
11008;SDS011;5557;51.670;7.788;2022-12-11T02:52:40;120.47;;;49.30;;
11008;SDS011;5557;51.670;7.788;2022-12-11T02:55:08;110.97;;;46.37;;
11008;SDS011;5557;51.670;7.788;2022-12-11T02:57:41;110.67;;;48.63;;
11008;SDS011;5557;51.670;7.788;2022-12-11T03:00:15;114.33;;;48.40;;
11008;SDS011;5557;51.670;7.788;2022-12-11T03:02:43;112.70;;;48.67;;
11008;SDS011;5557;51.670;7.788;2022-12-11T03:05:11;110.13;;;46.33;;
11008;SDS011;5557;51.670;7.788;2022-12-11T03:07:40;117.60;;;47.17;;
11008;SDS011;5557;51.670;7.788;2022-12-11T03:10:09;102.20;;;48.50;;
11008;SDS011;5557;51.670;7.788;2022-12-11T03:12:41;114.50;;;50.40;;
11008;SDS011;5557;51.670;7.788;2022-12-11T03:15:19;107.47;;;46.57;;
11008;SDS011;5557;51.670;7.788;2022-12-11T03:17:55;99.83;;;46.50;;
11008;SDS011;5557;51.670;7.788;2022-12-11T03:20:56;99.97;;;44.93;;
11008;SDS011;5557;51.670;7.788;2022-12-11T03:23:47;88.30;;;40.00;;
11008;SDS011;5557;51.670;7.788;2022-12-11T03:26:19;84.90;;;39.60;;
11008;SDS011;5557;51.670;7.788;2022-12-11T03:28:48;102.40;;;42.43;;
11008;SDS011;5557;51.670;7.788;2022-12-11T03:31:36;86.23;;;40.20;;
11008;SDS011;5557;51.670;7.788;2022-12-11T03:34:21;95.97;;;44.40;;
11008;SDS011;5557;51.670;7.788;2022-12-11T03:36:54;103.63;;;45.27;;
11008;SDS011;5557;51.670;7.788;2022-12-11T03:39:25;92.63;;;42.60;;
11008;SDS011;5557;51.670;7.788;2022-12-11T03:41:56;95.00;;;44.30;;
11008;SDS011;5557;51.670;7.788;2022-12-11T03:44:28;101.73;;;44.27;;
11008;SDS011;5557;51.670;7.788;2022-12-11T03:46:57;95.70;;;41.60;;
11008;SDS011;5557;51.670;7.788;2022-12-11T03:49:27;86.47;;;41.03;;
11008;SDS011;5557;51.670;7.788;2022-12-11T03:51:57;81.53;;;38.00;;
11008;SDS011;5557;51.670;7.788;2022-12-11T03:54:26;89.30;;;39.50;;
11008;SDS011;5557;51.670;7.788;2022-12-11T03:56:55;84.50;;;37.17;;
11008;SDS011;5557;51.670;7.788;2022-12-11T03:59:27;74.53;;;33.80;;
11008;SDS011;5557;51.670;7.788;2022-12-11T04:01:54;75.70;;;36.03;;
11008;SDS011;5557;51.670;7.788;2022-12-11T04:04:22;80.40;;;37.77;;
11008;SDS011;5557;51.670;7.788;2022-12-11T04:06:48;83.07;;;38.97;;
11008;SDS011;5557;51.670;7.788;2022-12-11T04:09:15;80.87;;;35.07;;
11008;SDS011;5557;51.670;7.788;2022-12-11T04:11:42;79.07;;;37.07;;
11008;SDS011;5557;51.670;7.788;2022-12-11T04:14:10;89.93;;;38.13;;
11008;SDS011;5557;51.670;7.788;2022-12-11T04:16:58;94.90;;;40.47;;
11008;SDS011;5557;51.670;7.788;2022-12-11T04:19:25;88.80;;;38.87;;
11008;SDS011;5557;51.670;7.788;2022-12-11T04:22:11;85.97;;;39.90;;
11008;SDS011;5557;51.670;7.788;2022-12-11T04:25:00;90.10;;;39.10;;
11008;SDS011;5557;51.670;7.788;2022-12-11T04:27:27;89.77;;;39.67;;
11008;SDS011;5557;51.670;7.788;2022-12-11T04:30:15;82.27;;;38.63;;
11008;SDS011;5557;51.670;7.788;2022-12-11T04:32:56;79.73;;;37.07;;
11008;SDS011;5557;51.670;7.788;2022-12-11T04:35:23;80.83;;;38.50;;
11008;SDS011;5557;51.670;7.788;2022-12-11T04:37:51;93.87;;;40.40;;
11008;SDS011;5557;51.670;7.788;2022-12-11T04:40:18;86.23;;;38.37;;
11008;SDS011;5557;51.670;7.788;2022-12-11T04:42:45;96.50;;;41.70;;
11008;SDS011;5557;51.670;7.788;2022-12-11T04:45:13;92.77;;;40.43;;
11008;SDS011;5557;51.670;7.788;2022-12-11T04:47:40;95.17;;;41.70;;
11008;SDS011;5557;51.670;7.788;2022-12-11T04:50:09;115.47;;;44.80;;
11008;SDS011;5557;51.670;7.788;2022-12-11T04:52:37;104.33;;;43.90;;
11008;SDS011;5557;51.670;7.788;2022-12-11T04:55:04;103.50;;;42.20;;
11008;SDS011;5557;51.670;7.788;2022-12-11T04:57:32;98.73;;;42.03;;
11008;SDS011;5557;51.670;7.788;2022-12-11T04:59:59;92.87;;;39.70;;
11008;SDS011;5557;51.670;7.788;2022-12-11T05:02:27;111.57;;;42.50;;
11008;SDS011;5557;51.670;7.788;2022-12-11T05:04:54;109.13;;;43.20;;
11008;SDS011;5557;51.670;7.788;2022-12-11T05:07:21;114.30;;;45.10;;
11008;SDS011;5557;51.670;7.788;2022-12-11T05:09:48;124.03;;;45.80;;
11008;SDS011;5557;51.670;7.788;2022-12-11T05:12:15;121.27;;;47.97;;
11008;SDS011;5557;51.670;7.788;2022-12-11T05:14:42;128.80;;;47.00;;
11008;SDS011;5557;51.670;7.788;2022-12-11T05:17:09;127.03;;;48.17;;
11008;SDS011;5557;51.670;7.788;2022-12-11T05:19:36;123.30;;;45.50;;
11008;SDS011;5557;51.670;7.788;2022-12-11T05:22:03;136.87;;;51.70;;
11008;SDS011;5557;51.670;7.788;2022-12-11T05:24:30;135.70;;;48.50;;
11008;SDS011;5557;51.670;7.788;2022-12-11T05:26:57;122.97;;;44.90;;
11008;SDS011;5557;51.670;7.788;2022-12-11T05:29:24;120.97;;;45.77;;
11008;SDS011;5557;51.670;7.788;2022-12-11T05:31:51;127.03;;;48.27;;
11008;SDS011;5557;51.670;7.788;2022-12-11T05:34:19;117.63;;;44.50;;
11008;SDS011;5557;51.670;7.788;2022-12-11T05:36:46;124.47;;;47.10;;
11008;SDS011;5557;51.670;7.788;2022-12-11T05:39:13;133.77;;;47.20;;
11008;SDS011;5557;51.670;7.788;2022-12-11T05:41:41;134.93;;;47.30;;
11008;SDS011;5557;51.670;7.788;2022-12-11T05:44:10;129.13;;;47.17;;
11008;SDS011;5557;51.670;7.788;2022-12-11T05:46:38;118.07;;;42.23;;
11008;SDS011;5557;51.670;7.788;2022-12-11T05:49:06;126.40;;;46.23;;
11008;SDS011;5557;51.670;7.788;2022-12-11T05:51:33;133.77;;;46.10;;
11008;SDS011;5557;51.670;7.788;2022-12-11T05:54:00;132.27;;;46.70;;
11008;SDS011;5557;51.670;7.788;2022-12-11T05:56:29;132.83;;;48.70;;
11008;SDS011;5557;51.670;7.788;2022-12-11T05:58:58;136.83;;;45.87;;
11008;SDS011;5557;51.670;7.788;2022-12-11T06:01:30;122.40;;;47.03;;
11008;SDS011;5557;51.670;7.788;2022-12-11T06:04:08;123.70;;;45.40;;
11008;SDS011;5557;51.670;7.788;2022-12-11T06:06:37;137.57;;;46.77;;
11008;SDS011;5557;51.670;7.788;2022-12-11T06:09:06;144.60;;;48.50;;
11008;SDS011;5557;51.670;7.788;2022-12-11T06:11:33;129.60;;;42.67;;
11008;SDS011;5557;51.670;7.788;2022-12-11T06:14:01;140.30;;;45.77;;
11008;SDS011;5557;51.670;7.788;2022-12-11T06:16:29;138.90;;;45.80;;
11008;SDS011;5557;51.670;7.788;2022-12-11T06:18:56;130.93;;;46.33;;
11008;SDS011;5557;51.670;7.788;2022-12-11T06:21:27;124.43;;;43.97;;
11008;SDS011;5557;51.670;7.788;2022-12-11T06:23:57;135.90;;;45.80;;
11008;SDS011;5557;51.670;7.788;2022-12-11T06:26:25;125.30;;;45.37;;
11008;SDS011;5557;51.670;7.788;2022-12-11T06:28:53;123.13;;;44.67;;
11008;SDS011;5557;51.670;7.788;2022-12-11T06:31:20;121.50;;;43.00;;
11008;SDS011;5557;51.670;7.788;2022-12-11T06:33:48;123.97;;;46.77;;
11008;SDS011;5557;51.670;7.788;2022-12-11T06:36:16;116.60;;;43.60;;
11008;SDS011;5557;51.670;7.788;2022-12-11T06:38:44;120.90;;;43.80;;
11008;SDS011;5557;51.670;7.788;2022-12-11T06:41:13;113.30;;;43.00;;
11008;SDS011;5557;51.670;7.788;2022-12-11T06:43:40;120.10;;;43.80;;
11008;SDS011;5557;51.670;7.788;2022-12-11T06:46:09;106.20;;;39.77;;
11008;SDS011;5557;51.670;7.788;2022-12-11T06:48:42;107.57;;;37.63;;
11008;SDS011;5557;51.670;7.788;2022-12-11T06:51:11;104.93;;;41.67;;
11008;SDS011;5557;51.670;7.788;2022-12-11T06:53:39;107.03;;;43.07;;
11008;SDS011;5557;51.670;7.788;2022-12-11T06:56:08;106.93;;;39.87;;
11008;SDS011;5557;51.670;7.788;2022-12-11T06:58:37;100.73;;;41.47;;
11008;SDS011;5557;51.670;7.788;2022-12-11T07:01:12;102.63;;;40.43;;
11008;SDS011;5557;51.670;7.788;2022-12-11T07:03:41;109.57;;;42.80;;
11008;SDS011;5557;51.670;7.788;2022-12-11T07:06:08;97.73;;;38.50;;
11008;SDS011;5557;51.670;7.788;2022-12-11T07:08:36;101.33;;;39.73;;
11008;SDS011;5557;51.670;7.788;2022-12-11T07:11:04;96.60;;;38.37;;
11008;SDS011;5557;51.670;7.788;2022-12-11T07:13:36;104.87;;;40.30;;
11008;SDS011;5557;51.670;7.788;2022-12-11T07:16:03;97.00;;;37.17;;
11008;SDS011;5557;51.670;7.788;2022-12-11T07:18:39;92.30;;;36.30;;
11008;SDS011;5557;51.670;7.788;2022-12-11T07:21:09;94.67;;;38.93;;
11008;SDS011;5557;51.670;7.788;2022-12-11T07:23:38;83.40;;;35.80;;
11008;SDS011;5557;51.670;7.788;2022-12-11T07:26:10;88.07;;;36.07;;
11008;SDS011;5557;51.670;7.788;2022-12-11T07:28:39;87.43;;;33.60;;
11008;SDS011;5557;51.670;7.788;2022-12-11T07:33:54;96.30;;;35.93;;
11008;SDS011;5557;51.670;7.788;2022-12-11T07:36:28;90.10;;;34.73;;
11008;SDS011;5557;51.670;7.788;2022-12-11T07:38:55;85.43;;;35.47;;
11008;SDS011;5557;51.670;7.788;2022-12-11T07:41:22;81.97;;;34.00;;
11008;SDS011;5557;51.670;7.788;2022-12-11T07:43:49;78.20;;;34.10;;
11008;SDS011;5557;51.670;7.788;2022-12-11T07:46:18;88.63;;;36.53;;
11008;SDS011;5557;51.670;7.788;2022-12-11T07:48:47;87.03;;;38.80;;
11008;SDS011;5557;51.670;7.788;2022-12-11T07:51:18;71.50;;;31.33;;
11008;SDS011;5557;51.670;7.788;2022-12-11T07:54:00;59.13;;;28.90;;
11008;SDS011;5557;51.670;7.788;2022-12-11T07:56:29;67.33;;;30.37;;
11008;SDS011;5557;51.670;7.788;2022-12-11T07:59:09;64.37;;;31.37;;
11008;SDS011;5557;51.670;7.788;2022-12-11T08:01:37;69.43;;;33.60;;
11008;SDS011;5557;51.670;7.788;2022-12-11T08:04:05;75.13;;;33.33;;
11008;SDS011;5557;51.670;7.788;2022-12-11T08:06:36;70.50;;;33.53;;
11008;SDS011;5557;51.670;7.788;2022-12-11T08:09:05;67.27;;;30.60;;
11008;SDS011;5557;51.670;7.788;2022-12-11T08:11:34;72.33;;;29.83;;
11008;SDS011;5557;51.670;7.788;2022-12-11T08:14:01;79.67;;;32.53;;
11008;SDS011;5557;51.670;7.788;2022-12-11T08:16:28;61.73;;;29.30;;
11008;SDS011;5557;51.670;7.788;2022-12-11T08:18:56;70.53;;;33.50;;
11008;SDS011;5557;51.670;7.788;2022-12-11T08:21:24;67.93;;;31.17;;
11008;SDS011;5557;51.670;7.788;2022-12-11T08:23:52;73.33;;;32.30;;
11008;SDS011;5557;51.670;7.788;2022-12-11T08:26:24;73.27;;;33.10;;
11008;SDS011;5557;51.670;7.788;2022-12-11T08:28:52;72.23;;;32.83;;
11008;SDS011;5557;51.670;7.788;2022-12-11T08:31:20;82.20;;;34.93;;
11008;SDS011;5557;51.670;7.788;2022-12-11T08:33:48;69.93;;;33.67;;
11008;SDS011;5557;51.670;7.788;2022-12-11T08:36:19;77.13;;;34.43;;
11008;SDS011;5557;51.670;7.788;2022-12-11T08:38:48;75.00;;;33.13;;
11008;SDS011;5557;51.670;7.788;2022-12-11T08:41:20;72.53;;;33.40;;
11008;SDS011;5557;51.670;7.788;2022-12-11T08:43:52;72.50;;;35.13;;
11008;SDS011;5557;51.670;7.788;2022-12-11T08:46:23;71.27;;;32.50;;
11008;SDS011;5557;51.670;7.788;2022-12-11T08:48:53;81.83;;;33.73;;
11008;SDS011;5557;51.670;7.788;2022-12-11T08:51:21;71.47;;;34.13;;
11008;SDS011;5557;51.670;7.788;2022-12-11T08:53:50;81.07;;;35.50;;
11008;SDS011;5557;51.670;7.788;2022-12-11T08:56:19;81.50;;;35.70;;
11008;SDS011;5557;51.670;7.788;2022-12-11T08:58:49;77.73;;;36.60;;
11008;SDS011;5557;51.670;7.788;2022-12-11T09:01:20;80.13;;;35.43;;
11008;SDS011;5557;51.670;7.788;2022-12-11T09:03:52;84.50;;;38.47;;
11008;SDS011;5557;51.670;7.788;2022-12-11T09:06:21;83.87;;;35.57;;
11008;SDS011;5557;51.670;7.788;2022-12-11T09:08:50;76.33;;;32.83;;
11008;SDS011;5557;51.670;7.788;2022-12-11T09:11:19;74.77;;;35.30;;
11008;SDS011;5557;51.670;7.788;2022-12-11T09:13:49;77.00;;;36.23;;
11008;SDS011;5557;51.670;7.788;2022-12-11T09:16:17;86.43;;;36.37;;
11008;SDS011;5557;51.670;7.788;2022-12-11T09:18:47;81.43;;;35.57;;
11008;SDS011;5557;51.670;7.788;2022-12-11T09:21:16;89.33;;;37.83;;
11008;SDS011;5557;51.670;7.788;2022-12-11T09:23:45;87.00;;;37.87;;
11008;SDS011;5557;51.670;7.788;2022-12-11T09:26:14;85.90;;;34.50;;
11008;SDS011;5557;51.670;7.788;2022-12-11T09:28:43;76.60;;;35.00;;
11008;SDS011;5557;51.670;7.788;2022-12-11T09:31:13;82.53;;;35.57;;
11008;SDS011;5557;51.670;7.788;2022-12-11T09:33:43;81.20;;;34.27;;
11008;SDS011;5557;51.670;7.788;2022-12-11T09:36:12;76.03;;;32.00;;
11008;SDS011;5557;51.670;7.788;2022-12-11T09:38:39;68.57;;;32.47;;
11008;SDS011;5557;51.670;7.788;2022-12-11T09:44:41;70.63;;;31.47;;
11008;SDS011;5557;51.670;7.788;2022-12-11T09:50:14;68.70;;;32.93;;
11008;SDS011;5557;51.670;7.788;2022-12-11T09:55:54;72.63;;;34.80;;
11008;SDS011;5557;51.670;7.788;2022-12-11T09:59:03;68.83;;;33.27;;
11008;SDS011;5557;51.670;7.788;2022-12-11T10:04:56;68.70;;;35.00;;
11008;SDS011;5557;51.670;7.788;2022-12-11T10:07:50;77.53;;;36.63;;
11008;SDS011;5557;51.670;7.788;2022-12-11T10:10:32;61.30;;;32.83;;
11008;SDS011;5557;51.670;7.788;2022-12-11T10:16:37;78.33;;;36.03;;
11008;SDS011;5557;51.670;7.788;2022-12-11T10:19:17;74.17;;;35.80;;
11008;SDS011;5557;51.670;7.788;2022-12-11T10:21:51;79.93;;;34.53;;
11008;SDS011;5557;51.670;7.788;2022-12-11T10:24:41;85.40;;;35.87;;
11008;SDS011;5557;51.670;7.788;2022-12-11T10:27:35;69.67;;;33.27;;
11008;SDS011;5557;51.670;7.788;2022-12-11T10:32:50;79.40;;;36.60;;
11008;SDS011;5557;51.670;7.788;2022-12-11T10:35:26;88.70;;;35.70;;
11008;SDS011;5557;51.670;7.788;2022-12-11T10:38:33;90.77;;;37.43;;
11008;SDS011;5557;51.670;7.788;2022-12-11T10:41:08;84.50;;;35.90;;
11008;SDS011;5557;51.670;7.788;2022-12-11T10:43:42;74.63;;;35.90;;
11008;SDS011;5557;51.670;7.788;2022-12-11T10:46:15;76.80;;;36.80;;
11008;SDS011;5557;51.670;7.788;2022-12-11T10:48:54;91.50;;;38.03;;
11008;SDS011;5557;51.670;7.788;2022-12-11T10:51:33;85.03;;;37.80;;
11008;SDS011;5557;51.670;7.788;2022-12-11T10:54:06;73.97;;;35.70;;
11008;SDS011;5557;51.670;7.788;2022-12-11T10:56:44;74.27;;;38.83;;
11008;SDS011;5557;51.670;7.788;2022-12-11T10:59:23;84.47;;;39.53;;
11008;SDS011;5557;51.670;7.788;2022-12-11T11:01:57;80.50;;;38.23;;
11008;SDS011;5557;51.670;7.788;2022-12-11T11:04:36;83.77;;;40.63;;
11008;SDS011;5557;51.670;7.788;2022-12-11T11:07:11;76.53;;;37.83;;
11008;SDS011;5557;51.670;7.788;2022-12-11T11:09:44;79.00;;;38.30;;
11008;SDS011;5557;51.670;7.788;2022-12-11T11:12:20;79.10;;;36.43;;
11008;SDS011;5557;51.670;7.788;2022-12-11T11:15:03;70.40;;;35.57;;
11008;SDS011;5557;51.670;7.788;2022-12-11T11:17:39;82.67;;;38.77;;
11008;SDS011;5557;51.670;7.788;2022-12-11T11:20:24;73.30;;;36.60;;
11008;SDS011;5557;51.670;7.788;2022-12-11T11:22:56;66.90;;;35.00;;
11008;SDS011;5557;51.670;7.788;2022-12-11T11:25:28;59.73;;;33.60;;
11008;SDS011;5557;51.670;7.788;2022-12-11T11:28:00;65.90;;;34.77;;
11008;SDS011;5557;51.670;7.788;2022-12-11T11:30:37;59.13;;;33.70;;
11008;SDS011;5557;51.670;7.788;2022-12-11T11:33:14;58.97;;;32.77;;
11008;SDS011;5557;51.670;7.788;2022-12-11T11:35:55;54.43;;;31.70;;
11008;SDS011;5557;51.670;7.788;2022-12-11T11:38:32;60.23;;;33.87;;
11008;SDS011;5557;51.670;7.788;2022-12-11T11:41:20;53.73;;;33.50;;
11008;SDS011;5557;51.670;7.788;2022-12-11T11:43:55;58.47;;;34.77;;
11008;SDS011;5557;51.670;7.788;2022-12-11T11:46:37;54.40;;;32.10;;
11008;SDS011;5557;51.670;7.788;2022-12-11T11:49:19;51.57;;;32.17;;
11008;SDS011;5557;51.670;7.788;2022-12-11T11:54:51;52.27;;;32.60;;
11008;SDS011;5557;51.670;7.788;2022-12-11T12:00:25;35.10;;;25.20;;
11008;SDS011;5557;51.670;7.788;2022-12-11T12:03:04;34.27;;;24.63;;
11008;SDS011;5557;51.670;7.788;2022-12-11T12:08:55;32.60;;;24.70;;
11008;SDS011;5557;51.670;7.788;2022-12-11T12:12:27;30.40;;;23.30;;
11008;SDS011;5557;51.670;7.788;2022-12-11T12:15:09;32.30;;;23.00;;
11008;SDS011;5557;51.670;7.788;2022-12-11T12:18:14;31.47;;;23.67;;
11008;SDS011;5557;51.670;7.788;2022-12-11T12:21:01;31.57;;;24.23;;
11008;SDS011;5557;51.670;7.788;2022-12-11T12:23:43;30.37;;;23.60;;
11008;SDS011;5557;51.670;7.788;2022-12-11T12:26:28;29.80;;;23.00;;
11008;SDS011;5557;51.670;7.788;2022-12-11T12:29:24;25.27;;;21.27;;
11008;SDS011;5557;51.670;7.788;2022-12-11T12:32:28;25.03;;;20.33;;
11008;SDS011;5557;51.670;7.788;2022-12-11T12:35:43;26.30;;;21.97;;
11008;SDS011;5557;51.670;7.788;2022-12-11T12:38:35;24.93;;;21.23;;
11008;SDS011;5557;51.670;7.788;2022-12-11T12:44:58;24.93;;;20.47;;
11008;SDS011;5557;51.670;7.788;2022-12-11T12:47:45;18.40;;;16.40;;
11008;SDS011;5557;51.670;7.788;2022-12-11T12:50:19;21.03;;;18.50;;
11008;SDS011;5557;51.670;7.788;2022-12-11T12:52:49;24.67;;;19.40;;
11008;SDS011;5557;51.670;7.788;2022-12-11T12:55:22;26.57;;;20.30;;
11008;SDS011;5557;51.670;7.788;2022-12-11T12:58:00;24.80;;;18.57;;
11008;SDS011;5557;51.670;7.788;2022-12-11T13:00:32;17.50;;;15.13;;
11008;SDS011;5557;51.670;7.788;2022-12-11T13:03:12;21.93;;;17.00;;
11008;SDS011;5557;51.670;7.788;2022-12-11T13:05:58;18.33;;;16.30;;
11008;SDS011;5557;51.670;7.788;2022-12-11T13:08:51;20.37;;;16.93;;
11008;SDS011;5557;51.670;7.788;2022-12-11T13:11:19;22.83;;;19.23;;
11008;SDS011;5557;51.670;7.788;2022-12-11T13:14:03;25.87;;;19.30;;
11008;SDS011;5557;51.670;7.788;2022-12-11T13:17:04;21.53;;;18.87;;
11008;SDS011;5557;51.670;7.788;2022-12-11T13:20:05;23.50;;;18.43;;
11008;SDS011;5557;51.670;7.788;2022-12-11T13:22:49;22.03;;;19.33;;
11008;SDS011;5557;51.670;7.788;2022-12-11T13:25:49;29.00;;;20.57;;
11008;SDS011;5557;51.670;7.788;2022-12-11T13:28:29;22.50;;;20.10;;
11008;SDS011;5557;51.670;7.788;2022-12-11T13:33:44;23.73;;;20.30;;
11008;SDS011;5557;51.670;7.788;2022-12-11T13:36:20;25.03;;;20.70;;
11008;SDS011;5557;51.670;7.788;2022-12-11T13:38:52;26.37;;;20.57;;
11008;SDS011;5557;51.670;7.788;2022-12-11T13:41:21;24.20;;;18.80;;
11008;SDS011;5557;51.670;7.788;2022-12-11T13:43:49;22.50;;;19.00;;
11008;SDS011;5557;51.670;7.788;2022-12-11T13:46:21;26.03;;;19.97;;
11008;SDS011;5557;51.670;7.788;2022-12-11T13:48:56;22.73;;;19.80;;
11008;SDS011;5557;51.670;7.788;2022-12-11T13:51:31;22.10;;;18.37;;
11008;SDS011;5557;51.670;7.788;2022-12-11T13:54:11;25.20;;;19.57;;
11008;SDS011;5557;51.670;7.788;2022-12-11T13:59:55;24.47;;;19.07;;
11008;SDS011;5557;51.670;7.788;2022-12-11T14:02:27;23.27;;;18.00;;
11008;SDS011;5557;51.670;7.788;2022-12-11T14:05:18;24.97;;;19.57;;
11008;SDS011;5557;51.670;7.788;2022-12-11T14:07:47;22.07;;;17.87;;
11008;SDS011;5557;51.670;7.788;2022-12-11T14:10:21;19.23;;;17.03;;
11008;SDS011;5557;51.670;7.788;2022-12-11T14:12:52;22.17;;;17.77;;
11008;SDS011;5557;51.670;7.788;2022-12-11T14:15:44;22.13;;;17.93;;
11008;SDS011;5557;51.670;7.788;2022-12-11T14:18:13;23.47;;;18.00;;
11008;SDS011;5557;51.670;7.788;2022-12-11T14:20:45;22.90;;;19.37;;
11008;SDS011;5557;51.670;7.788;2022-12-11T14:23:23;22.43;;;17.70;;
11008;SDS011;5557;51.670;7.788;2022-12-11T14:25:53;20.53;;;17.53;;
11008;SDS011;5557;51.670;7.788;2022-12-11T14:28:23;23.80;;;18.90;;
11008;SDS011;5557;51.670;7.788;2022-12-11T14:30:56;19.80;;;17.60;;
11008;SDS011;5557;51.670;7.788;2022-12-11T14:33:33;18.97;;;16.97;;
11008;SDS011;5557;51.670;7.788;2022-12-11T14:36:04;20.30;;;17.40;;
11008;SDS011;5557;51.670;7.788;2022-12-11T14:38:33;23.90;;;17.50;;
11008;SDS011;5557;51.670;7.788;2022-12-11T14:41:05;20.20;;;17.63;;
11008;SDS011;5557;51.670;7.788;2022-12-11T14:43:44;19.77;;;16.87;;
11008;SDS011;5557;51.670;7.788;2022-12-11T14:46:21;21.23;;;17.00;;
11008;SDS011;5557;51.670;7.788;2022-12-11T14:49:08;22.87;;;19.37;;
11008;SDS011;5557;51.670;7.788;2022-12-11T14:51:47;19.50;;;17.50;;
11008;SDS011;5557;51.670;7.788;2022-12-11T14:54:25;18.57;;;16.57;;
11008;SDS011;5557;51.670;7.788;2022-12-11T14:56:56;24.80;;;16.20;;
11008;SDS011;5557;51.670;7.788;2022-12-11T14:59:24;19.23;;;17.10;;
11008;SDS011;5557;51.670;7.788;2022-12-11T15:01:58;17.40;;;15.70;;
11008;SDS011;5557;51.670;7.788;2022-12-11T15:04:43;19.30;;;16.63;;
11008;SDS011;5557;51.670;7.788;2022-12-11T15:07:28;19.13;;;17.13;;
11008;SDS011;5557;51.670;7.788;2022-12-11T15:09:55;21.90;;;17.87;;
11008;SDS011;5557;51.670;7.788;2022-12-11T15:12:22;19.13;;;17.10;;
11008;SDS011;5557;51.670;7.788;2022-12-11T15:14:56;21.53;;;17.40;;
11008;SDS011;5557;51.670;7.788;2022-12-11T15:17:28;24.47;;;19.40;;
11008;SDS011;5557;51.670;7.788;2022-12-11T15:20:01;20.43;;;17.80;;
11008;SDS011;5557;51.670;7.788;2022-12-11T15:22:35;19.93;;;17.33;;
11008;SDS011;5557;51.670;7.788;2022-12-11T15:25:02;19.83;;;16.53;;
11008;SDS011;5557;51.670;7.788;2022-12-11T15:27:34;23.40;;;18.47;;
11008;SDS011;5557;51.670;7.788;2022-12-11T15:35:51;22.40;;;17.67;;
11008;SDS011;5557;51.670;7.788;2022-12-11T15:38:27;22.17;;;19.10;;
11008;SDS011;5557;51.670;7.788;2022-12-11T15:41:10;22.53;;;20.07;;
11008;SDS011;5557;51.670;7.788;2022-12-11T15:43:42;22.60;;;19.70;;
11008;SDS011;5557;51.670;7.788;2022-12-11T15:46:10;23.43;;;18.60;;
11008;SDS011;5557;51.670;7.788;2022-12-11T15:48:37;29.33;;;23.20;;
11008;SDS011;5557;51.670;7.788;2022-12-11T15:51:04;32.70;;;22.67;;
11008;SDS011;5557;51.670;7.788;2022-12-11T15:53:32;27.37;;;19.87;;
11008;SDS011;5557;51.670;7.788;2022-12-11T15:55:58;22.93;;;18.93;;
11008;SDS011;5557;51.670;7.788;2022-12-11T15:58:27;20.77;;;18.33;;
11008;SDS011;5557;51.670;7.788;2022-12-11T16:00:55;28.70;;;20.40;;